createdAt,value
2022-08-21T00:01:56.021Z,97757.66
2022-08-21T00:04:29.203Z,97759.28
2022-08-21T00:06:59.165Z,97755.28
2022-08-21T00:09:27.760Z,97759.06
2022-08-21T00:11:56.258Z,97754.00
2022-08-21T00:14:26.158Z,97758.78
2022-08-21T00:17:01.245Z,97750.66
2022-08-21T00:19:30.446Z,97746.25
2022-08-21T00:21:59.324Z,97745.09
2022-08-21T00:24:29.221Z,97749.00
2022-08-21T00:26:57.777Z,97749.41
2022-08-21T00:29:27.635Z,97746.56
2022-08-21T00:31:56.117Z,97746.25
2022-08-21T00:34:24.850Z,97750.34
2022-08-21T00:36:53.299Z,97747.63
2022-08-21T00:39:21.752Z,97744.84
2022-08-21T00:41:50.374Z,97739.00
2022-08-21T00:44:18.930Z,97734.00
2022-08-21T00:46:49.335Z,97732.38
2022-08-21T00:49:20.864Z,97729.69
2022-08-21T00:51:54.040Z,97730.41
2022-08-21T00:54:26.749Z,97728.03
2022-08-21T00:57:01.188Z,97722.22
2022-08-21T00:59:36.998Z,97723.44
2022-08-21T01:02:09.950Z,97718.56
2022-08-21T01:04:38.622Z,97720.56
2022-08-21T01:07:07.978Z,97722.34
2022-08-21T01:09:37.316Z,97723.84
2022-08-21T01:12:06.866Z,97723.31
2022-08-21T01:14:36.353Z,97722.66
2022-08-21T01:17:08.156Z,97722.28
2022-08-21T01:19:36.694Z,97717.72
2022-08-21T01:22:07.277Z,97710.31
2022-08-21T01:24:36.235Z,97721.31
2022-08-21T01:27:06.171Z,97717.66
2022-08-21T01:29:44.358Z,97708.97
2022-08-21T01:32:16.967Z,97715.66
2022-08-21T01:34:50.203Z,97713.38
2022-08-21T01:37:22.307Z,97711.13
2022-08-21T01:39:51.053Z,97714.84
2022-08-21T01:42:19.938Z,97717.66
2022-08-21T01:44:48.543Z,97719.41
2022-08-21T01:47:18.680Z,97718.13
2022-08-21T01:49:47.710Z,97716.66
2022-08-21T01:52:16.224Z,97723.00
2022-08-21T01:54:46.241Z,97717.94
2022-08-21T01:57:26.219Z,97724.81
2022-08-21T01:59:55.115Z,97728.88
2022-08-21T02:02:23.808Z,97720.56
2022-08-21T02:04:52.255Z,97728.72
2022-08-21T02:07:20.829Z,97716.31
2022-08-21T02:09:50.784Z,97719.59
2022-08-21T02:12:19.279Z,97719.72
2022-08-21T02:14:47.773Z,97709.88
2022-08-21T02:17:16.292Z,97702.59
2022-08-21T02:19:44.738Z,97704.97
2022-08-21T02:22:13.896Z,97705.41
2022-08-21T02:24:54.557Z,97697.22
2022-08-21T02:27:27.408Z,97709.03
2022-08-21T02:29:58.603Z,97704.03
2022-08-21T02:32:28.019Z,97700.53
2022-08-21T02:34:56.867Z,97704.19
2022-08-21T02:37:26.556Z,97704.31
2022-08-21T02:39:55.234Z,97699.03
2022-08-21T02:42:25.086Z,97701.44
2022-08-21T02:44:53.500Z,97705.50
2022-08-21T02:47:21.990Z,97703.69
2022-08-21T02:49:50.415Z,97708.88
2022-08-21T02:52:18.942Z,97702.44
2022-08-21T02:54:47.834Z,97704.09
2022-08-21T02:57:16.344Z,97703.72
2022-08-21T02:59:46.439Z,97698.28
2022-08-21T03:02:15.612Z,97696.44
2022-08-21T03:04:46.683Z,97688.13
2022-08-21T03:07:16.280Z,97700.00
2022-08-21T03:09:55.213Z,97704.44
2022-08-21T03:12:24.788Z,97698.53
2022-08-21T03:14:56.456Z,97698.81
2022-08-21T03:17:29.478Z,97700.66
2022-08-21T03:19:59.365Z,97707.38
2022-08-21T03:22:30.905Z,97715.88
2022-08-21T03:24:59.688Z,97717.69
2022-08-21T03:27:28.773Z,97714.72
2022-08-21T03:30:00.184Z,97713.28
2022-08-21T03:32:28.935Z,97714.03
2022-08-21T03:34:57.387Z,97717.50
2022-08-21T03:37:26.379Z,97710.97
2022-08-21T03:39:55.745Z,97715.03
2022-08-21T03:42:24.827Z,97716.91
2022-08-21T03:44:53.765Z,97713.03
2022-08-21T03:47:23.990Z,97717.09
2022-08-21T03:49:53.080Z,97707.81
2022-08-21T03:52:21.617Z,97707.00
2022-08-21T03:54:51.247Z,97713.81
2022-08-21T03:57:20.302Z,97716.00
2022-08-21T03:59:48.977Z,97714.34
2022-08-21T04:02:23.468Z,97713.50
2022-08-21T04:04:51.956Z,97726.34
2022-08-21T04:07:20.398Z,97729.53
2022-08-21T04:09:48.837Z,97728.78
2022-08-21T04:12:17.294Z,97724.03
2022-08-21T04:14:45.793Z,97732.59
2022-08-21T04:17:14.333Z,97729.47
2022-08-21T04:19:44.164Z,97730.66
2022-08-21T04:22:12.822Z,97732.16
2022-08-21T04:24:41.334Z,97729.78
2022-08-21T04:27:09.806Z,97735.66
2022-08-21T04:29:40.045Z,97738.31
2022-08-21T04:32:09.023Z,97745.25
2022-08-21T04:34:37.476Z,97738.25
2022-08-21T04:37:07.448Z,97746.81
2022-08-21T04:39:35.943Z,97751.13
2022-08-21T04:42:05.895Z,97748.50
2022-08-21T04:44:34.368Z,97760.38
2022-08-21T04:47:02.884Z,97758.59
2022-08-21T04:49:32.052Z,97753.84
2022-08-21T04:52:01.479Z,97754.97
2022-08-21T04:54:31.322Z,97766.81
2022-08-21T04:57:06.605Z,97765.16
2022-08-21T04:59:42.695Z,97773.97
2022-08-21T05:02:12.130Z,97773.47
2022-08-21T05:04:47.802Z,97778.25
2022-08-21T05:07:42.412Z,97771.03
2022-08-21T05:10:14.906Z,97774.50
2022-08-21T05:12:44.980Z,97779.38
2022-08-21T05:15:15.166Z,97786.06
2022-08-21T05:17:44.249Z,97776.19
2022-08-21T05:20:22.204Z,97783.38
2022-08-21T05:22:50.693Z,97778.91
2022-08-21T05:25:22.275Z,97782.50
2022-08-21T05:27:52.757Z,97784.88
2022-08-21T05:30:22.268Z,97788.72
2022-08-21T05:32:50.738Z,97786.44
2022-08-21T05:35:19.199Z,97788.06
2022-08-21T05:37:47.700Z,97788.91
2022-08-21T05:40:22.347Z,97785.91
2022-08-21T05:42:56.570Z,97793.56
2022-08-21T05:45:41.781Z,97800.50
2022-08-21T05:48:16.380Z,97794.34
2022-08-21T05:50:47.145Z,97799.78
2022-08-21T05:53:17.493Z,97799.94
2022-08-21T05:55:47.282Z,97801.59
2022-08-21T05:58:22.333Z,97786.81
2022-08-21T06:00:53.745Z,97797.06
2022-08-21T06:03:25.615Z,97788.50
2022-08-21T06:05:54.683Z,97787.72
2022-08-21T06:08:26.127Z,97783.88
2022-08-21T06:10:57.755Z,97792.75
2022-08-21T06:13:28.679Z,97792.25
2022-08-21T06:16:09.501Z,97788.63
2022-08-21T06:18:40.066Z,97798.53
2022-08-21T06:21:09.323Z,97800.41
2022-08-21T06:23:37.904Z,97799.31
2022-08-21T06:26:09.277Z,97803.28
2022-08-21T06:28:39.957Z,97797.75
2022-08-21T06:31:16.079Z,97794.38
2022-08-21T06:33:44.874Z,97791.75
2022-08-21T06:36:13.618Z,97790.72
2022-08-21T06:38:42.322Z,97788.56
2022-08-21T06:41:24.380Z,97787.19
2022-08-21T06:43:58.974Z,97784.25
2022-08-21T06:46:31.573Z,97785.13
2022-08-21T06:49:00.379Z,97786.56
2022-08-21T06:51:29.314Z,97785.53
2022-08-21T06:53:59.406Z,97771.44
2022-08-21T06:56:28.076Z,97770.72
2022-08-21T06:58:58.095Z,97768.69
2022-08-21T07:01:28.830Z,97761.69
2022-08-21T07:03:57.594Z,97769.38
2022-08-21T07:06:26.886Z,97774.47
2022-08-21T07:08:58.874Z,97772.28
2022-08-21T07:11:28.259Z,97776.72
2022-08-21T07:13:59.416Z,97778.72
2022-08-21T07:16:27.895Z,97779.19
2022-08-21T07:18:56.474Z,97773.03
2022-08-21T07:21:26.173Z,97772.69
2022-08-21T07:23:55.033Z,97785.69
2022-08-21T07:26:25.582Z,97781.75
2022-08-21T07:28:55.401Z,97775.16
2022-08-21T07:31:27.475Z,97774.28
2022-08-21T07:33:56.561Z,97767.25
2022-08-21T07:36:25.438Z,97768.09
2022-08-21T07:38:54.168Z,97768.97
2022-08-21T07:41:26.260Z,97770.91
2022-08-21T07:43:55.006Z,97769.75
2022-08-21T07:46:25.215Z,97778.53
2022-08-21T07:48:54.311Z,97776.31
2022-08-21T07:51:28.589Z,97774.88
2022-08-21T07:54:00.018Z,97779.84
2022-08-21T07:56:29.426Z,97780.25
2022-08-21T07:58:58.757Z,97774.16
2022-08-21T08:01:28.895Z,97775.22
2022-08-21T08:03:57.580Z,97771.09
2022-08-21T08:06:26.926Z,97773.63
2022-08-21T08:08:55.402Z,97776.03
2022-08-21T08:11:23.882Z,97775.69
2022-08-21T08:13:54.359Z,97783.97
2022-08-21T08:16:23.029Z,97780.44
2022-08-21T08:18:53.412Z,97785.28
2022-08-21T08:21:22.068Z,97793.25
2022-08-21T08:23:50.837Z,97789.88
2022-08-21T08:26:19.287Z,97789.59
2022-08-21T08:28:48.644Z,97786.84
2022-08-21T08:31:17.750Z,97792.59
2022-08-21T08:33:46.314Z,97785.97
2022-08-21T08:36:19.913Z,97785.06
2022-08-21T08:38:49.892Z,97787.84
2022-08-21T08:41:23.847Z,97781.78
2022-08-21T08:44:06.829Z,97791.56
2022-08-21T08:46:43.135Z,97784.88
2022-08-21T08:49:23.237Z,97792.81
2022-08-21T08:52:01.587Z,97793.09
2022-08-21T08:54:35.438Z,97799.03
2022-08-21T08:57:09.644Z,97792.03
2022-08-21T08:59:43.774Z,97789.03
2022-08-21T09:02:15.292Z,97797.69
2022-08-21T09:04:46.435Z,97797.34
2022-08-21T09:07:33.009Z,97807.13
2022-08-21T09:10:16.268Z,97793.56
2022-08-21T09:12:59.155Z,97799.06
2022-08-21T09:15:36.679Z,97799.28
2022-08-21T09:18:36.454Z,97799.59
2022-08-21T09:21:21.590Z,97800.00
2022-08-21T09:24:02.471Z,97794.63
2022-08-21T09:26:49.277Z,97795.53
2022-08-21T09:29:24.398Z,97788.22
2022-08-21T09:31:53.586Z,97789.94
2022-08-21T09:34:29.801Z,97791.28
2022-08-21T09:36:59.961Z,97793.69
2022-08-21T09:39:45.657Z,97798.25
2022-08-21T09:42:26.990Z,97788.66
2022-08-21T09:45:14.801Z,97796.81
2022-08-21T09:47:44.098Z,97791.09
2022-08-21T09:50:18.240Z,97800.44
2022-08-21T09:52:52.298Z,97793.63
2022-08-21T09:55:53.917Z,97783.81
2022-08-21T09:58:23.212Z,97782.72
2022-08-21T10:01:07.455Z,97781.28
2022-08-21T10:03:36.097Z,97785.31
2022-08-21T10:06:11.739Z,97789.59
2022-08-21T10:08:43.337Z,97789.41
2022-08-21T10:11:18.325Z,97783.44
2022-08-21T10:14:01.155Z,97779.66
2022-08-21T10:16:44.236Z,97786.03
2022-08-21T10:19:27.422Z,97768.97
2022-08-21T10:22:12.549Z,97763.06
2022-08-21T10:25:00.859Z,97759.91
2022-08-21T10:27:45.657Z,97765.56
2022-08-21T10:30:21.636Z,97750.88
2022-08-21T10:33:09.902Z,97752.59
2022-08-21T10:35:47.087Z,97748.66
2022-08-21T10:42:16.651Z,97735.91
2022-08-21T10:45:12.436Z,97741.16
2022-08-21T10:47:53.762Z,97738.81
2022-08-21T10:50:34.191Z,97738.84
2022-08-21T10:53:34.408Z,97741.53
2022-08-21T10:56:15.266Z,97739.41
2022-08-21T10:59:01.501Z,97740.81
2022-08-21T11:01:41.275Z,97737.09
2022-08-21T11:04:18.139Z,97739.97
2022-08-21T11:06:55.364Z,97737.47
2022-08-21T11:09:28.845Z,97730.78
2022-08-21T11:12:11.118Z,97729.69
2022-08-21T11:14:56.090Z,97741.97
2022-08-21T11:17:40.931Z,97727.53
2022-08-21T11:20:16.999Z,97728.88
2022-08-21T11:23:00.066Z,97721.78
2022-08-21T11:25:37.447Z,97718.97
2022-08-21T11:28:16.499Z,97717.44
2022-08-21T11:31:03.551Z,97714.00
2022-08-21T11:33:55.825Z,97708.22
2022-08-21T11:36:38.565Z,97705.56
2022-08-21T11:39:24.392Z,97709.09
2022-08-21T11:42:08.318Z,97702.38
2022-08-21T11:44:51.465Z,97701.09
2022-08-21T11:47:35.448Z,97697.72
2022-08-21T11:50:34.532Z,97704.66
2022-08-21T11:53:13.812Z,97695.13
2022-08-21T11:55:50.587Z,97681.06
2022-08-21T11:58:26.552Z,97693.94
2022-08-21T12:01:06.628Z,97686.38
2022-08-21T12:03:41.139Z,97675.19
2022-08-21T12:06:24.447Z,97676.91
2022-08-21T12:09:02.875Z,97675.50
2022-08-21T12:11:32.568Z,97669.25
2022-08-21T12:14:15.305Z,97671.22
2022-08-21T12:16:46.423Z,97666.66
2022-08-21T12:19:33.406Z,97668.69
2022-08-21T12:22:14.823Z,97668.94
2022-08-21T12:24:47.529Z,97663.19
2022-08-21T12:27:27.053Z,97659.38
2022-08-21T12:30:02.361Z,97658.94
2022-08-21T12:32:45.419Z,97658.66
2022-08-21T12:35:24.909Z,97659.06
2022-08-21T12:38:06.987Z,97650.84
2022-08-21T12:40:49.486Z,97659.03
2022-08-21T12:43:24.225Z,97648.34
2022-08-21T12:45:53.523Z,97648.75
2022-08-21T12:48:30.158Z,97648.66
2022-08-21T12:51:10.882Z,97640.69
2022-08-21T12:53:49.489Z,97640.44
2022-08-21T12:56:21.731Z,97628.91
2022-08-21T12:58:55.862Z,97631.22
2022-08-21T13:01:30.826Z,97628.19
2022-08-21T13:04:05.931Z,97621.69
2022-08-21T13:06:43.161Z,97611.19
2022-08-21T13:09:17.688Z,97611.94
2022-08-21T13:11:50.932Z,97605.41
2022-08-21T13:14:38.395Z,97606.69
2022-08-21T13:17:16.469Z,97603.06
2022-08-21T13:19:58.169Z,97598.22
2022-08-21T13:22:34.100Z,97598.38
2022-08-21T13:25:13.073Z,97596.75
2022-08-21T13:27:42.609Z,97591.91
2022-08-21T13:30:19.462Z,97585.28
2022-08-21T13:32:53.758Z,97584.19
2022-08-21T13:35:27.822Z,97585.50
2022-08-21T13:37:58.064Z,97576.69
2022-08-21T13:40:32.115Z,97570.53
2022-08-21T13:43:03.156Z,97570.22
2022-08-21T13:45:34.660Z,97577.66
2022-08-21T13:48:06.770Z,97573.22
2022-08-21T13:50:40.252Z,97569.28
2022-08-21T13:53:23.752Z,97572.63
2022-08-21T13:55:57.397Z,97572.38
2022-08-21T13:58:32.726Z,97569.63
2022-08-21T14:01:06.981Z,97564.19
2022-08-21T14:03:43.959Z,97565.50
2022-08-21T14:06:20.152Z,97567.75
2022-08-21T14:08:55.356Z,97565.69
2022-08-21T14:11:27.191Z,97574.50
2022-08-21T14:14:04.745Z,97570.25
2022-08-21T14:16:47.470Z,97571.25
2022-08-21T14:19:23.064Z,97564.59
2022-08-21T14:21:52.141Z,97563.06
2022-08-21T14:24:31.456Z,97558.78
2022-08-21T14:27:08.873Z,97557.22
2022-08-21T14:29:44.348Z,97556.09
2022-08-21T14:32:21.779Z,97559.38
2022-08-21T14:34:55.157Z,97556.22
2022-08-21T14:37:29.682Z,97559.00
2022-08-21T14:39:59.606Z,97554.19
2022-08-21T14:42:30.657Z,97554.53
2022-08-21T14:45:07.296Z,97553.75
2022-08-21T14:47:35.799Z,97556.72
2022-08-21T14:50:05.211Z,97552.16
2022-08-21T14:52:33.789Z,97557.22
2022-08-21T14:55:03.107Z,97554.28
2022-08-21T14:57:36.749Z,97543.94
2022-08-21T15:00:12.023Z,97547.22
2022-08-21T15:02:44.827Z,97549.31
2022-08-21T15:05:15.632Z,97545.16
2022-08-21T15:07:55.842Z,97548.50
2022-08-21T15:10:25.642Z,97549.50
2022-08-21T15:12:55.667Z,97543.84
2022-08-21T15:15:49.257Z,97536.28
2022-08-21T15:18:20.287Z,97533.06
2022-08-21T15:20:49.613Z,97528.78
2022-08-21T15:23:31.559Z,97524.75
2022-08-21T15:26:02.289Z,97536.34
2022-08-21T15:28:45.427Z,97540.19
2022-08-21T15:31:19.749Z,97531.75
2022-08-21T15:33:48.819Z,97530.56
2022-08-21T15:36:20.018Z,97519.50
2022-08-21T15:38:48.783Z,97528.78
2022-08-21T15:45:49.659Z,97520.94
2022-08-21T15:48:44.243Z,97518.16
2022-08-21T15:54:59.138Z,97513.38
2022-08-21T15:57:28.552Z,97511.41
2022-08-21T16:00:08.452Z,97507.13
2022-08-21T16:02:47.896Z,97509.22
2022-08-21T16:05:19.282Z,97500.88
2022-08-21T16:07:49.429Z,97504.50
2022-08-21T16:10:23.681Z,97493.06
2022-08-21T16:13:03.815Z,97500.50
2022-08-21T16:15:32.768Z,97504.13
2022-08-21T16:18:03.177Z,97497.56
2022-08-21T16:20:32.235Z,97499.34
2022-08-21T16:23:01.200Z,97497.78
2022-08-21T16:25:40.692Z,97496.59
2022-08-21T16:28:15.063Z,97499.28
2022-08-21T16:30:52.454Z,97495.34
2022-08-21T16:33:32.102Z,97494.44
2022-08-21T16:36:19.736Z,97492.81
2022-08-21T16:40:21.466Z,97494.06
2022-08-21T16:42:55.865Z,97488.22
2022-08-21T16:45:33.379Z,97487.72
2022-08-21T16:48:52.727Z,97491.06
2022-08-21T16:51:52.460Z,97493.22
2022-08-21T16:54:25.449Z,97496.47
2022-08-21T16:57:00.592Z,97487.81
2022-08-21T16:59:29.711Z,97489.84
2022-08-21T17:01:58.556Z,97484.88
2022-08-21T17:05:14.206Z,97486.16
2022-08-21T17:08:30.146Z,97492.69
2022-08-21T17:11:47.287Z,97485.38
2022-08-21T17:14:36.086Z,97491.72
2022-08-21T17:25:28.945Z,97499.31
2022-08-21T17:30:08.826Z,97502.53
2022-08-21T17:33:41.373Z,97501.06
2022-08-21T17:37:12.895Z,97500.91
2022-08-21T17:44:30.604Z,97497.81
2022-08-21T17:47:15.654Z,97499.84
2022-08-21T17:50:45.526Z,97501.84
2022-08-21T17:55:12.130Z,97497.13
2022-08-21T18:04:44.720Z,97499.09
2022-08-21T18:10:06.905Z,97503.78
2022-08-21T18:23:43.449Z,97520.03
2022-08-21T18:26:44.483Z,97517.28
2022-08-21T18:29:17.085Z,97528.72
2022-08-21T18:31:47.785Z,97531.09
2022-08-21T18:34:29.122Z,97533.00
2022-08-21T18:36:58.483Z,97530.63
2022-08-21T18:39:38.220Z,97532.19
2022-08-21T18:42:13.232Z,97537.69
2022-08-21T18:44:46.324Z,97544.72
2022-08-21T18:47:23.136Z,97547.44
2022-08-21T18:49:51.707Z,97548.97
2022-08-21T18:52:20.674Z,97546.13
2022-08-21T18:54:50.688Z,97544.44
2022-08-21T19:00:12.406Z,97538.47
2022-08-21T19:02:44.148Z,97547.47
2022-08-21T19:05:15.982Z,97538.75
2022-08-21T19:07:46.414Z,97531.66
2022-08-21T19:10:28.056Z,97539.16
2022-08-21T19:13:00.681Z,97542.63
2022-08-21T19:15:30.290Z,97540.19
2022-08-21T19:18:00.253Z,97540.09
2022-08-21T19:20:34.373Z,97543.06
2022-08-21T19:23:05.159Z,97554.34
2022-08-21T19:25:37.160Z,97551.16
2022-08-21T19:28:13.207Z,97559.00
2022-08-21T19:30:47.979Z,97554.94
2022-08-21T19:33:31.767Z,97558.00
2022-08-21T19:36:06.894Z,97554.50
2022-08-21T19:38:38.938Z,97553.31
2022-08-21T19:41:16.754Z,97553.38
2022-08-21T19:43:54.100Z,97557.16
2022-08-21T19:46:50.050Z,97561.16
2022-08-21T19:50:17.402Z,97562.44
2022-08-21T20:01:31.143Z,97552.56
2022-08-21T20:04:10.764Z,97550.94
2022-08-21T20:08:20.026Z,97544.00
2022-08-21T20:12:54.017Z,97541.13
2022-08-21T20:17:13.163Z,97547.22
2022-08-21T20:30:05.753Z,97565.47
2022-08-21T20:34:41.263Z,97567.50
2022-08-21T20:38:57.533Z,97560.53
2022-08-21T20:42:55.762Z,97563.56
2022-08-21T21:31:50.148Z,97576.59
2022-08-21T21:34:22.892Z,97581.72
2022-08-21T21:36:58.950Z,97578.28
2022-08-21T21:39:36.405Z,97579.56
2022-08-21T21:42:16.242Z,97571.50
2022-08-21T21:45:10.691Z,97577.06
2022-08-21T21:48:28.375Z,97590.69
2022-08-21T21:51:11.973Z,97592.75
2022-08-21T21:53:57.002Z,97596.09
2022-08-21T21:56:42.877Z,97599.25
2022-08-21T21:59:31.810Z,97599.44
2022-08-21T22:02:11.328Z,97603.06
2022-08-21T22:04:52.901Z,97605.88
2022-08-21T22:07:39.977Z,97609.75
2022-08-21T22:10:30.773Z,97606.63
2022-08-21T22:13:26.702Z,97610.44
2022-08-21T22:16:36.107Z,97603.34
2022-08-21T22:19:15.488Z,97610.22
2022-08-21T22:21:53.086Z,97615.59
2022-08-21T22:24:29.800Z,97609.16
2022-08-21T22:27:09.683Z,97609.78
2022-08-21T22:29:52.068Z,97612.50
2022-08-21T22:32:29.961Z,97617.94
2022-08-21T22:35:16.549Z,97610.19
2022-08-21T22:37:50.295Z,97614.00
2022-08-21T22:40:31.401Z,97608.88
2022-08-21T22:43:07.404Z,97611.47
2022-08-21T22:46:02.560Z,97613.59
2022-08-21T22:48:37.280Z,97616.53
2022-08-21T22:51:13.569Z,97620.78
2022-08-21T22:53:44.640Z,97620.13
2022-08-21T22:56:33.855Z,97622.88
2022-08-21T22:59:07.400Z,97616.66
2022-08-21T23:01:45.066Z,97617.81
2022-08-21T23:04:23.470Z,97622.88
2022-08-21T23:06:56.273Z,97624.72
2022-08-21T23:09:39.052Z,97626.06
2022-08-21T23:12:32.968Z,97622.41
2022-08-21T23:15:07.969Z,97619.94
2022-08-21T23:17:50.187Z,97620.88
2022-08-21T23:20:28.257Z,97618.13
2022-08-21T23:23:11.202Z,97613.84
2022-08-21T23:26:05.118Z,97618.19
2022-08-21T23:29:07.718Z,97618.28
2022-08-21T23:31:46.968Z,97619.41
2022-08-21T23:34:28.484Z,97625.66
2022-08-21T23:37:48.937Z,97631.59
2022-08-21T23:40:51.346Z,97622.81
2022-08-21T23:43:40.853Z,97625.63
2022-08-21T23:46:53.576Z,97633.19
2022-08-21T23:49:44.056Z,97630.88
2022-08-21T23:52:51.346Z,97627.44
2022-08-21T23:55:39.213Z,97618.50
2022-08-21T23:58:27.417Z,97619.50
